createdAt,value
2022-12-27T00:01:40.928Z,96286.75
2022-12-27T00:06:55.118Z,96292.69
2022-12-27T00:12:00.131Z,96297.41
2022-12-27T00:17:06.608Z,96295.59
2022-12-27T00:22:14.377Z,96310.28
2022-12-27T00:27:27.912Z,96318.44
2022-12-27T00:32:33.103Z,96321.09
2022-12-27T00:37:44.996Z,96341.16
2022-12-27T00:42:48.563Z,96364.69
2022-12-27T00:47:55.155Z,96372.22
2022-12-27T00:53:02.084Z,96377.28
2022-12-27T00:58:06.816Z,96365.66
2022-12-27T01:03:17.593Z,96385.41
2022-12-27T01:08:22.835Z,96380.28
2022-12-27T01:13:26.760Z,96388.75
2022-12-27T01:18:29.958Z,96391.28
2022-12-27T01:23:33.427Z,96397.75
2022-12-27T01:28:41.318Z,96420.50
2022-12-27T01:33:46.869Z,96435.44
2022-12-27T01:38:50.774Z,96446.09
2022-12-27T01:43:57.575Z,96457.34
2022-12-27T01:49:05.236Z,96457.94
2022-12-27T01:54:09.111Z,96468.66
2022-12-27T01:59:13.327Z,96468.06
2022-12-27T02:04:29.402Z,96465.34
2022-12-27T02:09:33.477Z,96475.78
2022-12-27T02:14:47.108Z,96474.16
2022-12-27T02:19:54.471Z,96482.94
2022-12-27T02:24:59.001Z,96474.97
2022-12-27T02:30:05.120Z,96473.97
2022-12-27T02:35:18.908Z,96476.25
2022-12-27T02:40:40.064Z,96490.31
2022-12-27T02:46:05.011Z,96495.22
2022-12-27T02:51:27.230Z,96493.22
2022-12-27T02:56:47.645Z,96509.72
2022-12-27T03:02:09.979Z,96528.50
2022-12-27T03:07:20.639Z,96521.22
2022-12-27T03:12:42.364Z,96537.00
2022-12-27T03:17:48.793Z,96532.28
2022-12-27T03:23:13.602Z,96542.78
2022-12-27T03:28:35.291Z,96552.09
2022-12-27T03:33:39.630Z,96565.09
2022-12-27T03:38:52.049Z,96577.63
2022-12-27T03:44:00.755Z,96591.75
2022-12-27T03:49:05.818Z,96606.06
2022-12-27T03:54:19.054Z,96621.63
2022-12-27T03:59:31.617Z,96627.38
2022-12-27T04:04:38.113Z,96637.63
2022-12-27T04:10:03.262Z,96649.50
2022-12-27T04:15:24.910Z,96666.28
2022-12-27T04:20:45.876Z,96684.25
2022-12-27T04:26:09.314Z,96687.91
2022-12-27T04:31:30.942Z,96689.53
2022-12-27T04:36:39.939Z,96700.53
2022-12-27T04:42:01.360Z,96697.88
2022-12-27T04:47:22.712Z,96691.91
2022-12-27T04:52:44.458Z,96699.84
2022-12-27T04:57:49.790Z,96698.75
2022-12-27T05:02:59.474Z,96718.31
2022-12-27T05:08:29.659Z,96724.47
2022-12-27T05:13:51.563Z,96728.84
2022-12-27T05:18:55.052Z,96737.66
2022-12-27T05:24:17.223Z,96738.03
2022-12-27T05:29:21.970Z,96748.63
2022-12-27T05:34:27.126Z,96770.41
2022-12-27T05:39:32.784Z,96759.09
2022-12-27T05:44:37.722Z,96775.00
2022-12-27T05:49:44.114Z,96775.72
2022-12-27T05:54:54.274Z,96782.75
2022-12-27T05:59:58.270Z,96786.72
2022-12-27T06:05:07.812Z,96794.41
2022-12-27T06:10:12.195Z,96789.09
2022-12-27T06:15:17.468Z,96784.47
2022-12-27T06:20:22.026Z,96770.34
2022-12-27T06:25:24.896Z,96777.16
2022-12-27T06:30:31.600Z,96789.09
2022-12-27T06:35:40.901Z,96793.25
2022-12-27T06:40:49.328Z,96789.91
2022-12-27T06:45:54.516Z,96791.06
2022-12-27T06:51:00.157Z,96794.94
2022-12-27T06:56:18.361Z,96804.41
2022-12-27T07:01:29.190Z,96811.44
2022-12-27T07:06:34.685Z,96822.78
2022-12-27T07:11:39.472Z,96815.16
2022-12-27T07:16:42.756Z,96826.31
2022-12-27T07:21:48.701Z,96825.00
2022-12-27T07:27:04.412Z,96829.56
2022-12-27T07:32:08.264Z,96836.31
2022-12-27T07:37:12.847Z,96835.19
2022-12-27T07:42:16.980Z,96845.78
2022-12-27T07:47:24.363Z,96841.31
2022-12-27T07:52:30.598Z,96829.50
2022-12-27T07:57:48.058Z,96838.78
2022-12-27T08:02:59.493Z,96847.34
2022-12-27T08:08:03.340Z,96852.53
2022-12-27T08:13:09.935Z,96844.75
2022-12-27T08:18:20.399Z,96846.25
2022-12-27T08:23:31.389Z,96843.03
2022-12-27T08:28:36.132Z,96835.88
2022-12-27T08:33:58.104Z,96848.22
2022-12-27T08:39:07.370Z,96844.41
2022-12-27T08:44:12.896Z,96835.03
2022-12-27T08:49:18.511Z,96837.31
2022-12-27T08:54:22.552Z,96852.66
2022-12-27T08:59:30.213Z,96855.22
2022-12-27T09:04:35.546Z,96859.94
2022-12-27T09:09:39.671Z,96866.56
2022-12-27T09:14:50.578Z,96860.28
2022-12-27T09:19:54.501Z,96866.28
2022-12-27T09:25:00.643Z,96877.56
2022-12-27T09:30:05.093Z,96878.03
2022-12-27T09:35:11.591Z,96879.47
2022-12-27T09:40:17.706Z,96876.81
2022-12-27T09:45:23.394Z,96868.06
2022-12-27T09:50:31.524Z,96858.06
2022-12-27T09:55:35.975Z,96860.09
2022-12-27T10:00:46.432Z,96850.69
2022-12-27T10:05:56.242Z,96852.97
2022-12-27T10:11:04.365Z,96842.94
2022-12-27T10:16:14.684Z,96830.66
2022-12-27T10:21:18.761Z,96829.00
2022-12-27T10:26:22.487Z,96832.84
2022-12-27T10:31:28.548Z,96825.72
2022-12-27T10:36:34.089Z,96823.84
2022-12-27T10:41:38.216Z,96817.88
2022-12-27T10:46:49.480Z,96821.97
2022-12-27T10:52:00.425Z,96823.03
2022-12-27T10:57:06.261Z,96822.59
2022-12-27T11:02:10.544Z,96817.84
2022-12-27T11:07:17.552Z,96801.69
2022-12-27T11:12:29.739Z,96801.03
2022-12-27T11:17:37.384Z,96791.19
2022-12-27T11:22:43.564Z,96794.03
2022-12-27T11:27:47.546Z,96791.13
2022-12-27T11:32:55.238Z,96781.25
2022-12-27T11:38:06.432Z,96776.66
2022-12-27T11:43:10.546Z,96776.47
2022-12-27T11:48:15.444Z,96771.38
2022-12-27T11:53:24.016Z,96773.84
2022-12-27T11:58:37.876Z,96777.13
2022-12-27T12:03:47.435Z,96773.53
2022-12-27T12:08:55.449Z,96775.00
2022-12-27T12:14:00.597Z,96772.88
2022-12-27T12:19:06.072Z,96762.97
2022-12-27T12:24:12.924Z,96768.13
2022-12-27T12:29:17.497Z,96756.59
2022-12-27T12:34:24.442Z,96763.94
2022-12-27T12:39:31.350Z,96766.59
2022-12-27T12:44:41.978Z,96759.22
2022-12-27T12:49:56.361Z,96759.59
2022-12-27T12:55:13.191Z,96756.16
2022-12-27T13:00:33.160Z,96755.84
2022-12-27T13:05:54.770Z,96741.63
2022-12-27T13:11:02.200Z,96731.09
2022-12-27T13:16:10.861Z,96731.66
2022-12-27T13:21:26.199Z,96725.75
2022-12-27T13:26:30.045Z,96740.28
2022-12-27T13:31:45.034Z,96737.78
2022-12-27T13:36:48.701Z,96741.84
2022-12-27T13:41:52.281Z,96735.31
2022-12-27T13:46:59.797Z,96728.84
2022-12-27T13:52:04.227Z,96718.44
2022-12-27T13:57:18.409Z,96716.13
2022-12-27T14:02:25.898Z,96710.09
2022-12-27T14:07:48.181Z,96717.69
2022-12-27T14:12:56.401Z,96724.81
2022-12-27T14:18:01.974Z,96730.97
2022-12-27T14:23:06.534Z,96740.50
2022-12-27T14:28:09.963Z,96737.41
2022-12-27T14:33:23.867Z,96733.81
2022-12-27T14:38:38.098Z,96743.97
2022-12-27T14:43:45.258Z,96741.56
2022-12-27T14:48:49.916Z,96747.75
2022-12-27T14:53:53.471Z,96742.09
2022-12-27T14:58:59.735Z,96747.88
2022-12-27T15:04:17.415Z,96753.03
2022-12-27T15:09:31.556Z,96750.84
2022-12-27T15:14:48.383Z,96750.88
2022-12-27T15:19:52.906Z,96758.66
2022-12-27T15:24:59.487Z,96761.53
2022-12-27T15:30:13.475Z,96764.81
2022-12-27T15:35:32.787Z,96770.13
2022-12-27T15:40:58.590Z,96758.44
2022-12-27T15:46:05.122Z,96763.16
2022-12-27T15:51:19.953Z,96762.13
2022-12-27T15:56:27.206Z,96769.25
2022-12-27T16:01:41.425Z,96773.72
2022-12-27T16:06:45.536Z,96769.19
2022-12-27T16:12:00.042Z,96768.38
2022-12-27T16:17:19.873Z,96754.25
2022-12-27T16:22:48.550Z,96759.75
2022-12-27T16:28:11.548Z,96764.84
2022-12-27T16:33:27.895Z,96762.16
2022-12-27T16:38:37.849Z,96762.56
2022-12-27T16:43:59.404Z,96769.47
2022-12-27T16:49:13.729Z,96759.84
2022-12-27T16:54:33.004Z,96757.00
2022-12-27T16:59:48.530Z,96748.63
2022-12-27T17:04:53.712Z,96737.41
2022-12-27T17:09:57.869Z,96730.72
2022-12-27T17:15:15.363Z,96730.28
2022-12-27T17:20:23.078Z,96736.84
2022-12-27T17:25:30.060Z,96729.50
2022-12-27T17:30:44.963Z,96719.34
2022-12-27T17:35:49.039Z,96718.09
2022-12-27T17:40:54.553Z,96716.88
2022-12-27T17:46:01.555Z,96706.09
2022-12-27T17:51:25.154Z,96705.88
2022-12-27T17:56:57.746Z,96703.44
2022-12-27T18:02:01.764Z,96697.50
2022-12-27T18:07:11.400Z,96687.91
2022-12-27T18:12:15.799Z,96683.84
2022-12-27T18:17:28.966Z,96686.28
2022-12-27T18:22:40.476Z,96680.59
2022-12-27T18:27:47.023Z,96683.44
2022-12-27T18:32:53.006Z,96674.47
2022-12-27T18:37:57.496Z,96669.34
2022-12-27T18:43:03.268Z,96661.78
2022-12-27T18:48:16.342Z,96654.00
2022-12-27T18:53:22.276Z,96653.59
2022-12-27T18:58:31.023Z,96668.94
2022-12-27T19:03:44.566Z,96655.22
2022-12-27T19:08:50.034Z,96654.81
2022-12-27T19:13:53.453Z,96655.03
2022-12-27T19:18:58.009Z,96665.84
2022-12-27T19:24:02.316Z,96656.88
2022-12-27T19:29:06.535Z,96657.69
2022-12-27T19:34:10.080Z,96650.94
2022-12-27T19:39:13.085Z,96654.84
2022-12-27T19:44:18.749Z,96649.09
2022-12-27T19:49:41.596Z,96645.03
2022-12-27T19:54:51.722Z,96653.16
2022-12-27T19:59:59.049Z,96645.84
2022-12-27T20:05:04.842Z,96633.75
2022-12-27T20:10:09.233Z,96637.22
2022-12-27T20:15:13.762Z,96629.91
2022-12-27T20:20:22.316Z,96630.50
2022-12-27T20:25:32.732Z,96631.91
2022-12-27T20:30:36.560Z,96631.88
2022-12-27T20:35:42.369Z,96632.06
2022-12-27T20:40:46.305Z,96621.03
2022-12-27T20:45:50.546Z,96634.47
2022-12-27T20:50:55.915Z,96626.50
2022-12-27T20:55:59.616Z,96627.09
2022-12-27T21:01:06.894Z,96627.25
2022-12-27T21:06:20.676Z,96623.53
2022-12-27T21:11:24.778Z,96620.69
2022-12-27T21:16:39.295Z,96614.53
2022-12-27T21:21:47.883Z,96613.50
2022-12-27T21:26:56.209Z,96595.38
2022-12-27T21:32:04.257Z,96594.56
2022-12-27T21:37:13.495Z,96602.47
2022-12-27T21:42:18.940Z,96600.59
2022-12-27T21:47:24.322Z,96587.59
2022-12-27T21:52:28.956Z,96594.66
2022-12-27T21:57:38.633Z,96596.88
2022-12-27T22:02:57.272Z,96591.94
2022-12-27T22:08:02.074Z,96593.13
2022-12-27T22:13:08.098Z,96580.13
2022-12-27T22:18:15.683Z,96592.28
2022-12-27T22:23:25.878Z,96577.97
2022-12-27T22:28:29.544Z,96574.28
2022-12-27T22:33:38.487Z,96575.91
2022-12-27T22:38:49.668Z,96562.81
2022-12-27T22:43:53.568Z,96553.88
2022-12-27T22:48:58.348Z,96566.03
2022-12-27T22:54:03.544Z,96559.13
2022-12-27T22:59:07.555Z,96560.72
2022-12-27T23:04:11.668Z,96559.91
2022-12-27T23:09:17.361Z,96556.47
2022-12-27T23:14:23.498Z,96546.69
2022-12-27T23:19:29.726Z,96549.97
2022-12-27T23:24:36.157Z,96540.16
2022-12-27T23:29:46.867Z,96537.59
2022-12-27T23:34:54.169Z,96533.25
2022-12-27T23:39:58.755Z,96533.00
2022-12-27T23:45:02.140Z,96534.41
2022-12-27T23:50:10.017Z,96530.25
2022-12-27T23:55:17.606Z,96533.28
